• Join FlightAware (Why Join?)
  • Login
  • US Flag 
04:27AM EDT


 

Airport Tracker/Info


-or-


 

Live Flight TrackerFlight Track Log ✈ SWA2436 ✈ 12-Apr-2013 ✈ KDEN - KMHT

Flight Track Log - Related Links

Times and Time Zones

All times are in EDT time to prevent confusion due to time zone crossing. See the SWA2436 flight status page for this flight to view local times or setup timezone preferences in your user account.

Time Position Orientation Groundspeed Altitude Reporting Facility
EDT Latitude Longitude Course Direction KTS MPH feet Rate Location/Type
12:32PM 39.8769 -104.5906 92° East 207 238 6,700  Level Denver Center
12:33PM 39.8744 -104.5011 92° East 254 292 7,900 1,920 Climbing Denver Center
12:34PM 39.8739 -104.3831 90° East 300 345 10,700 2,580 Climbing Denver Center
12:35PM 39.8736 -104.2539 90° East 356 410 13,300 2,760 Climbing Denver Center
12:36PM 39.8725 -104.1053 91° East 382 440 16,500 2,760 Climbing Denver Center
12:37PM 39.8722 -103.9603 90° East 403 464 19,100 2,340 Climbing Denver Center
12:38PM 39.8775 -103.7989 88° East 418 481 21,400 2,100 Climbing Denver Center
12:39PM 39.8933 -103.6481 82° East 425 489 23,500 1,980 Climbing Denver Center
12:40PM 39.9119 -103.4800 82° East 463 533 25,500 1,800 Climbing Denver Center
12:41PM 39.9314 -103.3092 82° East 473 544 27,300 1,680 Climbing Denver Center
12:42PM 39.9519 -103.1347 81° East 481 554 29,000 1,620 Climbing Denver Center
12:43PM 39.9747 -102.9231 82° East 502 578 30,700 1,560 Climbing Denver Center
12:44PM 39.9947 -102.7400 82° East 506 582 32,300 1,620 Climbing Denver Center
12:46PM 40.0169 -102.5300 82° East 503 579 34,400 1,680 Climbing Denver Center
12:47PM 40.0364 -102.3328 83° East 492 566 36,200 1,200 Climbing Denver Center
12:48PM 40.0542 -102.1667 82° East 482 555 37,000 360 Climbing Denver Center
12:49PM 40.0897 -101.9714 77° East 500 575 37,000  Level Denver Center
12:50PM 40.1219 -101.8067 76° East 491 565 37,000  Level Denver Center
12:51PM 40.1594 -101.6150 76° East 489 563 37,000  Level Denver Center
12:52PM 40.1914 -101.4517 76° East 486 559 37,000  Level Denver Center
12:53PM 40.2275 -101.2592 76° East 488 562 37,000  Level Denver Center
12:54PM 40.2581 -101.0956 76° East 488 562 37,000  Level Denver Center
12:55PM 40.2947 -100.9039 76° East 487 560 37,000  Level Denver Center
12:56PM 40.3261 -100.7383 76° East 492 566 37,000  Level Denver Center
12:57PM 40.3625 -100.5447 76° East 494 568 37,000  Level Denver Center
12:58PM 40.3917 -100.3786 77° East 493 567 37,000  Level Denver Center
12:59PM 40.4264 -100.1847 77° East 493 567 37,000  Level Denver Center
01:00PM 40.4564 -100.0189 77° East 492 566 37,000  Level Denver Center
01:01PM 40.4894 -99.8333 77° East 490 564 37,000  Level Denver Center
01:02PM 40.5208 -99.6594 77° East 491 565 37,000  Level Denver Center
01:03PM 40.5508 -99.4847 77° East 490 564 37,000  Level Denver Center
01:04PM 40.5803 -99.3089 78° East 494 568 37,000  Level Denver Center
01:05PM 40.6169 -99.0975 77° East 496 571 37,000  Level Denver Center
01:06PM 40.6403 -98.9594 77° East 492 566 37,000  Level Minneapolis Center
01:07PM 40.6692 -98.7861 78° East 490 564 37,000  Level Minneapolis Center
01:08PM 40.6972 -98.6122 78° East 490 564 37,000  Level Minneapolis Center
01:09PM 40.7250 -98.4397 78° East 487 560 37,000  Level Minneapolis Center
01:10PM 40.7531 -98.2681 78° East 483 556 37,000  Level Minneapolis Center
01:11PM 40.7811 -98.0983 78° East 479 551 37,000  Level Minneapolis Center
01:12PM 40.8139 -97.8922 78° East 479 551 37,000  Level Minneapolis Center
01:13PM 40.8403 -97.7192 79° East 482 555 37,000  Level Minneapolis Center
01:14PM 40.8672 -97.5456 78° East 482 555 37,000  Level Minneapolis Center
01:15PM 40.8958 -97.3586 78° East 485 558 37,000  Level Minneapolis Center
01:16PM 40.9225 -97.1850 78° East 485 558 37,000  Level Minneapolis Center
01:17PM 40.9492 -97.0117 78° East 483 556 37,000  Level Minneapolis Center
01:18PM 40.9742 -96.8386 79° East 482 555 37,000  Level Minneapolis Center
01:19PM 41.0006 -96.6653 79° East 481 554 37,000  Level Minneapolis Center
01:20PM 41.0256 -96.4919 79° East 482 555 37,000  Level Minneapolis Center
01:22PM 41.0553 -96.2839 79° East 483 556 37,000  Level Minneapolis Center
01:23PM 41.0800 -96.1092 79° East 487 560 37,000  Level Minneapolis Center
01:24PM 41.1056 -95.9353 79° East 488 562 37,000  Level Minneapolis Center
01:25PM 41.1306 -95.7581 79° East 494 568 37,000  Level Minneapolis Center
01:26PM 41.1536 -95.5800 80° East 496 571 37,000  Level Minneapolis Center
01:27PM 41.1819 -95.3658 80° East 494 568 37,000  Level Minneapolis Center
01:28PM 41.2072 -95.1847 79° East 497 572 37,000  Level Minneapolis Center
01:29PM 41.2322 -95.0008 80° East 502 578 37,000  Level Minneapolis Center
01:30PM 41.2564 -94.8144 80° East 507 583 37,000  Level Minneapolis Center
01:31PM 41.2800 -94.6292 80° East 510 587 37,000  Level Minneapolis Center
01:32PM 41.3011 -94.4431 81° East 510 587 37,000  Level Minneapolis Center
01:33PM 41.3281 -94.2214 81° East 507 583 37,000  Level Minneapolis Center
01:34PM 41.3511 -94.0403 80° East 510 587 37,000  Level Minneapolis Center
01:35PM 41.3725 -93.8561 81° East 508 585 37,000  Level Minneapolis Center
01:36PM 41.3950 -93.6728 81° East 506 582 37,000  Level Minneapolis Center
01:37PM 41.4181 -93.4858 81° East 509 586 37,000  Level Minneapolis Center
01:38PM 41.4403 -93.2986 81° East 513 590 37,000  Level Minneapolis Center
01:39PM 41.4661 -93.0806 81° East 503 579 37,000  Level Minneapolis Center
01:40PM 41.4858 -92.8981 82° East 501 577 37,000  Level Minneapolis Center
01:41PM 41.5081 -92.7158 81° East 499 574 37,000  Level Minneapolis Center
01:42PM 41.5244 -92.5578 82° East 501 577 37,000  Level Chicago Center
01:43PM 41.5436 -92.3769 82° East 497 572 37,000  Level Chicago Center
01:44PM 41.5636 -92.1950 82° East 499 574 37,000  Level Chicago Center
01:45PM 41.5856 -91.9792 82° East 495 570 37,000  Level Chicago Center
01:46PM 41.6047 -91.7975 82° East 497 572 37,000  Level Chicago Center
01:47PM 41.6222 -91.6161 83° East 498 573 37,000  Level Chicago Center
01:48PM 41.6414 -91.4353 82° East 497 572 37,000  Level Chicago Center
01:49PM 41.6592 -91.2539 82° East 497 572 37,000  Level Chicago Center
01:50PM 41.6808 -91.0364 82° East 498 573 37,000  Level Chicago Center
01:51PM 41.6972 -90.8578 83° East 495 570 37,000  Level Chicago Center
01:52PM 41.7131 -90.6781 83° East 493 567 37,000  Level Chicago Center
01:53PM 41.7300 -90.4939 83° East 490 564 37,000  Level Chicago Center
01:54PM 41.7458 -90.3133 83° East 487 560 37,000  Level Chicago Center
01:55PM 41.7625 -90.1325 83° East 487 560 37,000  Level Chicago Center
01:56PM 41.7817 -89.9142 83° East 491 565 37,000  Level Chicago Center
01:57PM 41.7967 -89.7314 84° East 493 567 37,000  Level Chicago Center
01:59PM 41.8089 -89.5692 84° East 488 562 37,000  Level Chicago Center
02:00PM 41.8281 -89.3511 83° East 491 565 37,000  Level Chicago Center
02:01PM 41.8414 -89.1700 84° East 490 564 37,000  Level Chicago Center
02:02PM 41.8561 -88.9894 84° East 490 564 37,000  Level Chicago Center
02:03PM 41.8700 -88.8072 84° East 489 563 37,000  Level Chicago Center
02:04PM 41.8831 -88.6261 84° East 489 563 37,000  Level Chicago Center
02:05PM 41.8961 -88.4450 84° East 487 560 37,000  Level Chicago Center
02:06PM 41.9117 -88.2256 84° East 489 563 37,000  Level Chicago Center
02:07PM 41.9247 -88.0439 84° East 487 560 37,000  Level Chicago Center
02:08PM 41.9469 -87.8614 81° East 491 565 37,000  Level Chicago Center
02:09PM 41.9683 -87.6786 81° East 494 568 37,000  Level Chicago Center
02:10PM 41.9908 -87.4950 81° East 496 571 37,000  Level Chicago Center
02:11PM 42.0106 -87.3094 82° East 501 577 37,000  Level Chicago Center
02:12PM 42.0325 -87.1275 81° East 496 571 37,000  Level Chicago Center
02:13PM 42.0572 -86.9075 81° East 499 574 37,000  Level Chicago Center
02:14PM 42.0767 -86.7236 82° East 497 572 37,000  Level Chicago Center
02:15PM 42.0961 -86.5539 81° East 504 580 37,000  Level Chicago Center
02:16PM 42.1169 -86.3622 82° East 513 590 37,000  Level Chicago Center
02:17PM 42.1408 -86.1314 82° East 519 597 37,000  Level Chicago Center
02:18PM 42.1578 -85.9553 83° East 516 594 37,000  Level Chicago Center
02:19PM 42.1772 -85.7661 82° East 514 592 37,000  Level Chicago Center
02:20PM 42.1997 -85.5367 82° East 517 595 37,000  Level Chicago Center
02:21PM 42.2189 -85.3467 82° East 516 594 37,000  Level Chicago Center
02:22PM 42.2375 -85.1531 83° East 521 600 37,000  Level Chicago Center
02:23PM 42.2572 -84.9594 82° East 524 603 37,000  Level Chicago Center
02:24PM 42.2739 -84.7714 83° East 513 590 37,000  Level Chicago Center
02:25PM 42.2919 -84.5808 83° East 514 592 37,000  Level Chicago Center
02:26PM 42.3111 -84.3533 83° East 510 587 37,000  Level Chicago Center
02:27PM 42.3247 -84.1756 84° East 512 589 37,000  Level Cleveland Center
02:28PM 42.3411 -83.9853 83° East 512 589 37,000  Level Cleveland Center
02:29PM 42.3592 -83.7950 83° East 512 589 37,000  Level Cleveland Center
02:30PM 42.3725 -83.6047 85° East 512 589 37,000  Level Cleveland Center
02:31PM 42.3883 -83.3972 84° East 512 589 37,000  Level Cleveland Center
02:32PM 42.4028 -83.2236 84° East 512 589 37,000  Level Cleveland Center
02:33PM 42.4175 -83.0331 84° East 517 595 37,000  Level Cleveland Center
02:34PM 42.4317 -82.8422 84° East 517 595 37,000  Level Cleveland Center
02:35PM 42.4458 -82.6514 84° East 517 595 37,000  Level Cleveland Center
02:36PM 42.4594 -82.4631 84° East 512 589 37,000  Level Cleveland Center
02:37PM 42.4728 -82.2750 84° East 512 589 37,000  Level Cleveland Center
02:38PM 42.4858 -82.0867 85° East 507 583 37,000  Level Cleveland Center
02:39PM 42.4964 -81.8956 86° East 507 583 37,000  Level Cleveland Center
02:40PM 42.5131 -81.7042 83° East 507 583 37,000  Level Cleveland Center
02:41PM 42.5253 -81.4931 85° East 497 572 37,000  Level Cleveland Center
02:42PM 42.5372 -81.3072 85° East 502 578 37,000  Level Cleveland Center
02:43PM 42.5486 -81.1131 85° East 507 583 37,000  Level Cleveland Center
02:44PM 42.5619 -80.9214 85° East 507 583 37,000  Level Cleveland Center
02:45PM 42.5706 -80.7242 87° East 513 590 37,000  Level Cleveland Center
02:46PM 42.5811 -80.5353 86° East 513 590 37,000  Level Cleveland Center
02:47PM 42.5914 -80.3433 86° East 513 590 37,000  Level Cleveland Center
02:48PM 42.5992 -80.1461 87° East 513 590 37,000  Level Cleveland Center
02:49PM 42.6106 -79.9569 85° East 513 590 37,000  Level Cleveland Center
02:50PM 42.6222 -79.7819 85° East 513 590 37,000  Level Cleveland Center
02:51PM 42.6311 -79.5897 86° East 513 590 37,000  Level Cleveland Center
02:52PM 42.6397 -79.3978 86° East 513 590 37,000  Level Cleveland Center
02:53PM 42.6500 -79.2056 86° East 513 590 37,000  Level Cleveland Center
02:54PM 42.6539 -79.0136 88° East 513 590 37,000  Level Cleveland Center
02:55PM 42.6636 -78.8186 86° East 518 596 37,000  Level Cleveland Center
02:56PM 42.6708 -78.6264 87° East 518 596 37,000  Level Cleveland Center
02:57PM 42.6758 -78.4342 88° East 513 590 37,000  Level Cleveland Center
02:58PM 42.6844 -78.2417 86° East 513 590 37,000  Level Cleveland Center
02:59PM 42.6908 -78.0464 87° East 518 596 37,000  Level Cleveland Center
03:00PM 42.6969 -77.8542 87° East 518 596 37,000  Level Cleveland Center
03:01PM 42.7028 -77.6644 88° East 518 596 37,000  Level Cleveland Center
03:02PM 42.7058 -77.4694 89° East 513 590 37,000  Level Cleveland Center
03:03PM 42.7111 -77.2797 88° East 513 590 37,000  Level Cleveland Center
03:05PM 42.7189 -77.0161 88° East 513 590 37,000  Level Boston Center
03:06PM 42.7222 -76.8269 89° East 508 585 37,000  Level Boston Center
03:07PM 42.7253 -76.6378 89° East 508 585 37,000  Level Boston Center
03:08PM 42.7300 -76.4486 88° East 503 579 37,000  Level Boston Center
03:09PM 42.7350 -76.2397 88° East 498 573 37,000  Level Boston Center
03:10PM 42.7392 -76.0506 88° East 493 567 37,000  Level Boston Center
03:11PM 42.7386 -75.8608 90° East 498 573 37,000  Level Boston Center
03:12PM 42.7422 -75.6661 88° East 503 579 37,000  Level Boston Center
03:13PM 42.7433 -75.4767 89° East 503 579 37,000 -120 Level Boston Center
03:14PM 42.7464 -75.2789 89° East 503 579 36,800 -1,380 Descending Boston Center
03:15PM 42.7447 -75.0864 91° East 503 579 34,300 -2,280 Descending Boston Center
03:16PM 42.7467 -74.9028 89° East 503 579 32,200 -2,100 Descending Boston Center
03:17PM 42.7486 -74.7161 89° East 493 567 30,200 -1,620 Descending Boston Center
03:18PM 42.7500 -74.5381 89° East 480 552 29,000 -900 Descending Boston Center
03:19PM 42.7467 -74.3656 91° East 468 539 28,500 -660 Descending Boston Center
03:20PM 42.7475 -74.1817 90° East 462 532 27,700 -900 Descending Boston Center
03:21PM 42.7442 -73.9922 91° East 479 551 26,800 -960 Descending Boston Center
03:22PM 42.7425 -73.8000 91° East 500 575 25,800 -900 Descending Boston Center
03:23PM 42.7547 -73.6419 84° East 500 575 25,000 -900 Descending Boston Center
03:24PM 42.7628 -73.4328 87° East 500 575 24,100 -660 Descending Boston Center
03:25PM 42.7686 -73.2378 88° East 510 587 23,700 -720 Descending Boston Center
03:26PM 42.7781 -73.0456 86° East 515 593 22,700 -1,320 Descending Boston Center
03:27PM 42.8208 -72.8278 75° East 539 620 21,100 -1,680 Descending Boston Center
03:28PM 42.8503 -72.6864 74° East 512 589 19,500 -1,860 Descending Boston Center
03:29PM 42.8881 -72.5108 74° East 468 539 17,400 -2,220 Descending Boston Center
03:30PM 42.8964 -72.3522 86° East 444 511 15,000 -2,640 Descending Boston Center
03:31PM 42.8650 -72.1908 105° East 401 461 12,300 -2,160 Descending Boston Center
03:32PM 42.8436 -72.0578 102° East 406 467 10,900 -1,140 Descending Boston Center
03:33PM 42.8244 -71.9136 100° East 369 425 10,100 -1,140 Descending Boston Center
03:34PM 42.8656 -71.8169 60° Northeast 318 366 8,700 -1,860 Descending Boston Center
03:35PM 42.9317 -71.7197 47° Northeast 306 352 6,500 -1,980 Descending Boston Center
03:36PM 42.8917 -71.6778 142° Southeast 152 175 4,800 -1,680 Descending Boston Center
03:37PM 42.8400 -71.7208 211° Southwest 126 145 3,100 -900 Descending Boston Center
03:38PM 42.8083 -71.6589 125° Southeast 168 193 3,100 -480 Level Boston Center
03:39PM 42.8100 -71.5939 88° East 168 193 2,200 -480 Descending Boston Center
03:40PM 42.8533 -71.5453 39° Northeast 168 193 2,200 -300 Level Boston Center
03:41PM 42.8800 -71.5081 46° Northeast 152 175 1,700 -660 Descending Boston Center
03:42PM 42.9069 -71.4764 41° Northeast 123 142 900 -600 Descending Boston Center
03:43PM 42.9256 -71.4561 39° Northeast 123 142 500 9,840 Descending Boston Center
03:44PM 42.9586 -71.4189 39° Northeast 123 142 21,000 10,320 Climbing Boston Center
03:45PM 42.9833 -71.3900 41° Northeast 123 142 21,000  Level Boston Center